Time;durP1;ratioP1;P1;durP2;ratioP2;P2;SDS_P1;SDS_P2;PMS_P1;PMS_P2;Temp;Humidity;BMP_temperature;BMP_pressure;BME280_temperature;BME280_humidity;BME280_pressure;Samples;Min_cycle;Max_cycle;Signal;HPM_P1;HPM_P2
2021/05/06 00:34:19;;;;;;;0.00;0.00;;;9.50;99.90;;;;;;5013679;28;20053;-78
2021/05/06 00:36:46;;;;;;;0.10;0.10;;;9.20;99.90;;;;;;5011778;28;20029;-78
2021/05/06 00:39:16;;;;;;;0.10;0.10;;;9.10;99.90;;;;;;5013133;28;20065;-78
2021/05/06 01:05:10;;;;;;;0.88;0.85;;;9.20;99.90;;;;;;5030014;28;20053;-79
2021/05/06 01:07:46;;;;;;;0.30;0.30;;;9.30;99.90;;;;;;5065968;28;20075;-79
2021/05/06 01:10:26;;;;;;;;;;;9.30;99.90;;;;;;5070803;28;20075;-78
2021/05/06 01:12:52;;;;;;;0.00;0.00;;;9.10;99.90;;;;;;5074698;28;19951;-78
2021/05/06 01:15:18;;;;;;;0.00;0.00;;;8.80;99.90;;;;;;5069107;28;20146;-78
2021/05/06 01:17:44;;;;;;;0.10;0.10;;;8.70;99.90;;;;;;5086088;28;20058;-77
2021/05/06 01:20:10;;;;;;;0.10;0.10;;;8.80;99.90;;;;;;5069956;28;20081;-77
2021/05/06 01:22:36;;;;;;;0.00;0.00;;;9.00;99.90;;;;;;5089358;28;20373;-78
2021/05/06 01:25:03;;;;;;;0.20;0.20;;;9.20;99.90;;;;;;5086979;28;20036;-78
2021/05/06 01:30:34;;;;;;;0.10;0.10;;;9.30;99.90;;;;;;5068219;28;19919;-78
2021/05/06 01:33:06;;;;;;;;;;;9.50;99.90;;;;;;5078176;28;20453;-78
2021/05/06 01:35:48;;;;;;;0.00;0.00;;;9.50;99.90;;;;;;5076565;28;20672;-78
2021/05/06 01:41:28;;;;;;;0.00;0.00;;;9.50;99.90;;;;;;5068187;28;20028;-77
2021/05/06 01:59:57;;;;;;;0.10;0.10;;;9.60;99.90;;;;;;5067547;28;20085;-77
2021/05/06 02:02:23;;;;;;;0.10;0.10;;;9.50;99.90;;;;;;5067369;28;20056;-78
2021/05/06 02:04:49;;;;;;;0.03;0.03;;;9.40;99.90;;;;;;5072207;28;20111;-78
2021/05/06 02:07:15;;;;;;;0.53;0.53;;;9.40;99.90;;;;;;5085344;28;20038;-77
2021/05/06 02:09:41;;;;;;;0.20;0.20;;;9.50;99.90;;;;;;5086224;28;20710;-78
2021/05/06 02:12:09;;;;;;;0.05;0.05;;;9.50;99.90;;;;;;5067613;28;20052;-78
2021/05/06 02:14:35;;;;;;;0.08;0.08;;;9.60;99.90;;;;;;5067429;28;20399;-78
2021/05/06 02:17:01;;;;;;;0.10;0.10;;;9.50;99.90;;;;;;5074625;28;20024;-78
2021/05/06 02:19:34;;;;;;;0.00;0.00;;;9.50;99.90;;;;;;5086883;28;20403;-77
2021/05/06 02:22:03;;;;;;;0.30;0.30;;;9.50;99.90;;;;;;5086251;28;20570;-78
2021/05/06 02:24:29;;;;;;;0.15;0.15;;;9.30;99.90;;;;;;5083539;28;20089;-77
2021/05/06 02:26:55;;;;;;;0.95;0.95;;;9.40;99.90;;;;;;5072671;28;20032;-78
2021/05/06 02:29:21;;;;;;;0.22;0.22;;;9.30;99.90;;;;;;5072031;28;20026;-78
2021/05/06 02:31:47;;;;;;;0.03;0.03;;;9.30;99.90;;;;;;5085251;28;20442;-78
2021/05/06 02:34:12;;;;;;;0.47;0.47;;;9.40;99.90;;;;;;5061159;28;20039;-78
2021/05/06 02:36:38;;;;;;;0.10;0.10;;;9.40;99.90;;;;;;5047273;28;20025;-78
2021/05/06 02:39:04;;;;;;;0.10;0.10;;;9.40;99.90;;;;;;5058881;28;20797;-78
2021/05/06 02:41:31;;;;;;;0.00;0.00;;;9.40;99.90;;;;;;5065781;28;20028;-77
2021/05/06 02:43:57;;;;;;;0.15;0.15;;;9.40;99.90;;;;;;5066617;28;20032;-78
2021/05/06 02:46:25;;;;;;;0.45;0.28;;;9.50;99.90;;;;;;5066895;28;20091;-78
2021/05/06 02:48:51;;;;;;;0.00;0.00;;;9.50;99.90;;;;;;5066331;28;20496;-78
2021/05/06 02:51:17;;;;;;;0.75;0.75;;;9.50;99.90;;;;;;5084740;28;20081;-77
2021/05/06 02:53:51;;;;;;;0.00;0.00;;;9.60;99.90;;;;;;5075526;28;20531;-77
2021/05/06 03:04:02;;;;;;;0.10;0.10;;;9.60;99.90;;;;;;5054188;28;20129;-78
2021/05/06 03:06:31;;;;;;;0.00;0.00;;;9.60;99.90;;;;;;5086551;28;20514;-78
2021/05/06 03:09:00;;;;;;;0.22;0.22;;;9.70;99.90;;;;;;5072513;28;20130;-78
2021/05/06 03:24:31;;;;;;;0.45;0.45;;;9.70;99.90;;;;;;5076234;28;20639;-77
2021/05/06 03:26:57;;;;;;;0.15;0.15;;;9.80;99.90;;;;;;5065812;28;20044;-78
2021/05/06 03:29:29;;;;;;;0.30;0.30;;;9.90;99.90;;;;;;5064427;28;20060;-77
2021/05/06 03:42:42;;;;;;;0.17;0.17;;;9.70;99.90;;;;;;5066318;28;20047;-78
2021/05/06 04:27:42;;;;;;;0.10;0.10;;;10.10;99.90;;;;;;5046393;28;20080;-78
2021/05/06 04:35:38;;;;;;;0.00;0.00;;;10.10;99.90;;;;;;5030289;28;20060;-78
2021/05/06 04:38:06;;;;;;;1.88;0.80;;;10.20;99.90;;;;;;5038519;28;20548;-78
2021/05/06 05:06:56;;;;;;;0.00;0.00;;;10.40;99.90;;;;;;5077920;28;20087;-79
2021/05/06 05:11:59;;;;;;;0.10;0.10;;;10.50;99.90;;;;;;5051653;28;20021;-78
2021/05/06 05:25:06;;;;;;;4.15;1.25;;;10.60;99.90;;;;;;5055347;28;20082;-78
2021/05/06 05:27:32;;;;;;;1.25;0.25;;;10.60;99.90;;;;;;5061495;28;20036;-79
2021/05/06 05:29:57;;;;;;;0.43;0.15;;;10.60;99.90;;;;;;5055522;28;20059;-79
2021/05/06 05:32:23;;;;;;;0.00;0.00;;;10.60;99.90;;;;;;5058913;28;20041;-79
2021/05/06 05:37:21;;;;;;;14.10;1.95;;;10.50;99.90;;;;;;5055696;28;20709;-79
2021/05/06 05:39:59;;;;;;;0.30;0.30;;;10.50;99.90;;;;;;5072546;28;20050;-79
2021/05/06 05:56:07;;;;;;;1.35;1.08;;;10.90;99.90;;;;;;5047743;28;20116;-81
2021/05/06 05:58:33;;;;;;;0.10;0.10;;;11.00;99.90;;;;;;5055929;28;20131;-80
2021/05/06 06:00:58;;;;;;;0.17;0.17;;;11.10;99.90;;;;;;5051550;28;20041;-80
2021/05/06 06:03:24;;;;;;;0.05;0.05;;;11.10;99.90;;;;;;5035331;28;20033;-80
2021/05/06 06:05:53;;;;;;;0.00;0.00;;;11.10;99.90;;;;;;5041378;28;20128;-80
2021/05/06 06:08:25;;;;;;;0.10;0.10;;;11.10;99.90;;;;;;5048269;28;20528;-80
2021/05/06 06:10:52;;;;;;;0.25;0.25;;;11.10;99.90;;;;;;5037255;28;20037;-80
2021/05/06 06:13:24;;;;;;;0.10;0.10;;;11.10;99.90;;;;;;5038222;28;20033;-79
2021/05/06 06:15:59;;;;;;;0.10;0.10;;;11.00;99.90;;;;;;5043792;28;20047;-79
2021/05/06 06:18:35;;;;;;;0.45;0.22;;;11.00;99.90;;;;;;5018717;28;20717;-79
2021/05/06 06:21:16;;;;;;;0.20;0.20;;;11.00;99.90;;;;;;5042193;28;20029;-79
2021/05/06 06:23:52;;;;;;;0.10;0.10;;;11.00;99.90;;;;;;5027634;28;20034;-80
2021/05/06 06:26:19;;;;;;;0.30;0.30;;;11.00;99.90;;;;;;5076741;28;20028;-79
2021/05/06 06:28:57;;;;;;;0.10;0.10;;;11.10;99.90;;;;;;5066265;28;20098;-79
2021/05/06 06:31:27;;;;;;;0.08;0.08;;;11.10;99.90;;;;;;5053474;28;20036;-79
2021/05/06 06:33:53;;;;;;;0.00;0.00;;;11.10;99.90;;;;;;5079770;28;20644;-79
2021/05/06 06:36:19;;;;;;;0.10;0.10;;;11.10;99.90;;;;;;5057401;28;20067;-78
2021/05/06 06:38:45;;;;;;;0.10;0.10;;;11.20;99.90;;;;;;5058527;28;20504;-78
2021/05/06 06:41:17;;;;;;;0.50;0.50;;;11.20;99.90;;;;;;5077111;28;20779;-78
2021/05/06 06:43:49;;;;;;;0.93;0.75;;;11.30;99.90;;;;;;5083420;28;20535;-79
2021/05/06 06:46:16;;;;;;;0.38;0.38;;;11.30;99.90;;;;;;5073413;28;20043;-79
2021/05/06 06:48:42;;;;;;;0.30;0.30;;;11.30;99.90;;;;;;5081364;28;20391;-79
2021/05/06 06:51:09;;;;;;;0.60;0.60;;;11.50;99.90;;;;;;5067596;28;20040;-79
2021/05/06 06:53:34;;;;;;;;;;;11.60;99.90;;;;;;5075282;28;20032;-79
2021/05/06 06:56:00;;;;;;;0.10;0.10;;;11.40;99.90;;;;;;5083553;28;19933;-79
2021/05/06 06:58:26;;;;;;;0.70;0.70;;;11.40;99.90;;;;;;5073582;28;20102;-79
2021/05/06 07:00:52;;;;;;;0.55;0.40;;;11.40;99.90;;;;;;5066203;28;20068;-78
2021/05/06 07:03:26;;;;;;;0.10;0.10;;;11.40;99.90;;;;;;5066735;28;20107;-79
2021/05/06 07:05:52;;;;;;;8.88;0.77;;;11.40;99.90;;;;;;5077882;28;20039;-79
2021/05/06 07:08:22;;;;;;;0.10;0.10;;;11.50;99.90;;;;;;5082010;28;20045;-78
2021/05/06 07:10:50;;;;;;;0.50;0.50;;;11.50;99.90;;;;;;5072094;28;20042;-78
2021/05/06 07:13:19;;;;;;;0.00;0.00;;;11.50;99.90;;;;;;5066149;28;20024;-80
2021/05/06 07:15:48;;;;;;;0.20;0.20;;;11.60;99.90;;;;;;5065028;28;20035;-80
2021/05/06 07:18:19;;;;;;;0.38;0.32;;;11.50;99.90;;;;;;5073784;28;20676;-80
2021/05/06 07:20:48;;;;;;;0.28;0.28;;;11.40;99.90;;;;;;5073926;28;20024;-80
2021/05/06 07:23:17;;;;;;;;;;;11.60;99.90;;;;;;5079631;28;20019;-80
2021/05/06 07:25:44;;;;;;;4.13;0.60;;;11.60;99.90;;;;;;5074881;28;19919;-80
2021/05/06 07:28:14;;;;;;;0.00;0.00;;;11.60;99.90;;;;;;5056572;28;20032;-79
2021/05/06 07:30:41;;;;;;;0.10;0.10;;;11.60;99.90;;;;;;5065377;28;20050;-80
2021/05/06 07:33:09;;;;;;;4.13;0.55;;;11.60;99.90;;;;;;5070131;28;20021;-80
2021/05/06 07:35:35;;;;;;;1.25;1.00;;;11.60;99.90;;;;;;5059808;28;20025;-81
2021/05/06 07:38:01;;;;;;;0.10;0.10;;;11.70;99.90;;;;;;5075075;28;20575;-81
2021/05/06 07:40:28;;;;;;;1.27;1.17;;;11.60;99.90;;;;;;5070861;28;20095;-79
2021/05/06 07:42:55;;;;;;;0.00;0.00;;;11.60;99.90;;;;;;5070076;28;20048;-79
2021/05/06 07:45:24;;;;;;;0.55;0.55;;;11.60;99.90;;;;;;5074162;28;20271;-79
2021/05/06 07:47:50;;;;;;;0.10;0.10;;;11.60;99.90;;;;;;5070950;28;20032;-79
2021/05/06 07:50:19;;;;;;;0.25;0.25;;;11.80;99.90;;;;;;5070016;28;20749;-79
2021/05/06 07:52:48;;;;;;;0.10;0.10;;;11.90;99.90;;;;;;5053397;28;20096;-79
2021/05/06 07:55:14;;;;;;;0.00;0.00;;;11.90;99.90;;;;;;5070255;28;20030;-79
2021/05/06 07:57:41;;;;;;;0.70;0.52;;;11.90;99.90;;;;;;5087523;28;20028;-79
2021/05/06 08:00:13;;;;;;;0.00;0.00;;;11.80;99.90;;;;;;5078015;28;20024;-79
2021/05/06 08:02:41;;;;;;;1.25;0.28;;;12.00;99.90;;;;;;5066888;28;20036;-79
2021/05/06 08:05:08;;;;;;;0.00;0.00;;;12.00;99.90;;;;;;5066988;28;20020;-79
2021/05/06 08:07:34;;;;;;;1.45;1.17;;;11.90;99.90;;;;;;5066917;28;20017;-79
2021/05/06 08:10:00;;;;;;;2.35;0.22;;;11.80;99.90;;;;;;5066721;28;20261;-79
2021/05/06 08:12:26;;;;;;;0.10;0.10;;;11.80;99.90;;;;;;5066789;28;20595;-79
2021/05/06 08:14:54;;;;;;;19.73;1.10;;;12.10;99.90;;;;;;5067615;28;20392;-79
2021/05/06 08:17:20;;;;;;;0.32;0.32;;;12.20;99.90;;;;;;5067463;28;20839;-79
2021/05/06 08:19:47;;;;;;;0.00;0.00;;;12.20;99.90;;;;;;5067396;28;20020;-79
2021/05/06 08:22:15;;;;;;;;;;;12.30;99.90;;;;;;5068148;28;20037;-79
2021/05/06 08:24:41;;;;;;;0.20;0.20;;;12.20;99.90;;;;;;5066952;28;19915;-79
2021/05/06 08:27:08;;;;;;;0.17;0.17;;;12.30;99.90;;;;;;5086802;28;20028;-79
2021/05/06 08:29:33;;;;;;;0.00;0.00;;;12.20;99.90;;;;;;5075332;28;20055;-79
2021/05/06 08:31:59;;;;;;;0.10;0.10;;;12.30;99.90;;;;;;5079860;28;20047;-79
2021/05/06 08:34:25;;;;;;;0.10;0.10;;;12.60;99.90;;;;;;5085506;28;20081;-79
2021/05/06 08:36:51;;;;;;;0.43;0.20;;;12.40;99.90;;;;;;5061685;28;20031;-79
2021/05/06 08:39:17;;;;;;;0.30;0.30;;;11.90;99.90;;;;;;5090289;28;20044;-79
2021/05/06 08:41:43;;;;;;;0.00;0.00;;;12.30;99.90;;;;;;5077861;28;20034;-79
2021/05/06 08:44:12;;;;;;;0.35;0.35;;;12.30;99.90;;;;;;5071242;28;20507;-79
2021/05/06 08:46:50;;;;;;;0.22;0.22;;;12.60;99.90;;;;;;5070374;28;20032;-79
2021/05/06 08:49:16;;;;;;;0.10;0.10;;;13.10;99.90;;;;;;5070829;28;20021;-79
2021/05/06 08:51:43;;;;;;;0.10;0.10;;;13.30;99.90;;;;;;5068867;28;20028;-79
2021/05/06 08:54:09;;;;;;;0.10;0.10;;;13.30;99.90;;;;;;5070847;28;20021;-79
2021/05/06 08:56:34;;;;;;;0.10;0.10;;;13.70;99.90;;;;;;5070858;28;20042;-79
2021/05/06 08:59:00;;;;;;;0.17;0.17;;;14.10;99.90;;;;;;5070419;28;20028;-79
2021/05/06 09:01:26;;;;;;;0.35;0.35;;;14.40;99.90;;;;;;5070405;28;20036;-79
2021/05/06 09:03:51;;;;;;;0.20;0.20;;;14.60;99.90;;;;;;5057120;28;20452;-79
2021/05/06 09:06:19;;;;;;;0.10;0.10;;;14.20;99.90;;;;;;5051000;28;20029;-79
2021/05/06 09:08:48;;;;;;;0.10;0.10;;;14.00;99.90;;;;;;5049780;28;20052;-79
2021/05/06 09:11:15;;;;;;;0.20;0.20;;;13.70;99.90;;;;;;5050494;28;20027;-79
2021/05/06 09:13:41;;;;;;;0.10;0.10;;;13.40;99.90;;;;;;5050069;28;20024;-79
2021/05/06 09:16:07;;;;;;;0.15;0.15;;;13.30;99.90;;;;;;5050019;28;20029;-79
2021/05/06 09:18:37;;;;;;;1.03;0.73;;;13.30;99.90;;;;;;5048855;28;20028;-79
2021/05/06 09:21:05;;;;;;;0.10;0.10;;;13.30;99.90;;;;;;5050456;28;20440;-80
2021/05/06 09:23:32;;;;;;;1.75;0.88;;;13.40;99.90;;;;;;5049880;28;20767;-79
2021/05/06 09:26:06;;;;;;;0.40;0.40;;;13.50;99.90;;;;;;5049885;28;20445;-80
2021/05/06 09:28:34;;;;;;;1.55;1.45;;;13.50;99.90;;;;;;5050341;28;20067;-80
2021/05/06 09:31:04;;;;;;;0.28;0.28;;;13.70;99.90;;;;;;5058713;28;20489;-80
2021/05/06 09:33:40;;;;;;;0.88;0.32;;;14.20;99.90;;;;;;5070785;28;20689;-79
2021/05/06 09:36:21;;;;;;;0.10;0.10;;;14.50;99.90;;;;;;5059112;28;20385;-79
2021/05/06 09:38:47;;;;;;;0.52;0.52;;;14.00;99.90;;;;;;5054610;28;20037;-79
2021/05/06 09:41:17;;;;;;;0.28;0.28;;;13.90;99.90;;;;;;5059673;28;20024;-80
2021/05/06 09:43:44;;;;;;;0.52;0.52;;;14.30;99.90;;;;;;5087723;28;20040;-79
2021/05/06 09:46:25;;;;;;;;;;;14.30;99.90;;;;;;5057895;28;20736;-79
2021/05/06 09:49:13;;;;;;;0.10;0.10;;;14.40;99.90;;;;;;5067858;28;19924;-79
2021/05/06 09:51:43;;;;;;;0.08;0.08;;;14.30;99.90;;;;;;5058320;28;20041;-79
2021/05/06 09:54:23;;;;;;;0.10;0.10;;;14.20;99.90;;;;;;5056018;28;20017;-80
2021/05/06 09:57:02;;;;;;;0.10;0.10;;;14.20;99.90;;;;;;5065366;28;20035;-80
2021/05/06 09:59:38;;;;;;;0.20;0.20;;;14.40;99.90;;;;;;5051864;28;20017;-79
2021/05/06 10:02:23;;;;;;;0.10;0.10;;;14.10;99.90;;;;;;5060159;28;20055;-79
2021/05/06 10:04:49;;;;;;;0.20;0.20;;;14.10;99.90;;;;;;5051647;28;20024;-79
2021/05/06 10:07:22;;;;;;;0.10;0.10;;;14.10;99.90;;;;;;5055870;28;20404;-79
2021/05/06 10:10:00;;;;;;;0.15;0.10;;;13.80;99.90;;;;;;5055289;28;20044;-80
2021/05/06 10:12:28;;;;;;;0.30;0.22;;;13.60;99.90;;;;;;5062623;28;20025;-79
2021/05/06 10:14:56;;;;;;;0.10;0.10;;;13.50;99.90;;;;;;5058653;28;20021;-79
2021/05/06 10:17:27;;;;;;;0.10;0.10;;;13.20;99.90;;;;;;5057790;28;20012;-79
2021/05/06 10:19:54;;;;;;;0.20;0.20;;;13.20;99.90;;;;;;5057382;28;20023;-80
2021/05/06 10:22:22;;;;;;;0.15;0.15;;;13.30;99.90;;;;;;5051709;28;20025;-80
2021/05/06 10:24:51;;;;;;;4.07;0.95;;;13.30;99.90;;;;;;5059262;28;20120;-80
2021/05/06 10:27:19;;;;;;;0.10;0.10;;;12.90;91.50;;;;;;5067526;28;20025;-78
2021/05/06 10:29:46;;;;;;;0.35;0.35;;;12.70;24.60;;;;;;5058573;28;20087;-79
2021/05/06 10:32:14;;;;;;;2.83;1.27;;;12.60;99.90;;;;;;5057368;28;21320;-79
2021/05/06 10:34:42;;;;;;;0.10;0.10;;;12.60;99.90;;;;;;5053450;28;20108;-80
2021/05/06 10:37:09;;;;;;;3.65;1.02;;;12.60;99.90;;;;;;5059507;28;20017;-79
2021/05/06 10:39:40;;;;;;;0.57;0.57;;;12.50;99.90;;;;;;5053432;28;20493;-79
2021/05/06 10:42:30;;;;;;;0.08;0.08;;;12.60;99.90;;;;;;5053101;28;20436;-80
2021/05/06 10:45:02;;;;;;;0.20;0.20;;;12.60;99.90;;;;;;5063644;28;20128;-81
2021/05/06 10:47:57;;;;;;;0.30;0.30;;;12.40;99.90;;;;;;5067377;28;20103;-79
2021/05/06 10:50:36;;;;;;;0.00;0.00;;;12.50;99.90;;;;;;5046253;28;20134;-79
2021/05/06 10:53:04;;;;;;;1.20;0.32;;;12.60;99.90;;;;;;5055776;28;20051;-79
2021/05/06 10:55:56;;;;;;;0.15;0.15;;;12.70;99.90;;;;;;5049499;28;20480;-79
2021/05/06 10:58:27;;;;;;;0.30;0.30;;;12.70;99.90;;;;;;5068471;28;20087;-79
2021/05/06 11:01:13;;;;;;;0.10;0.10;;;12.70;99.90;;;;;;5066961;28;20036;-79
2021/05/06 11:03:41;;;;;;;1.10;0.98;;;12.80;99.90;;;;;;5067018;28;20021;-79
2021/05/06 11:06:08;;;;;;;1.00;1.00;;;12.90;99.90;;;;;;5080019;28;20042;-79
2021/05/06 11:08:35;;;;;;;0.22;0.22;;;13.00;99.90;;;;;;5080101;28;20076;-79
2021/05/06 11:11:02;;;;;;;0.60;0.40;;;12.90;99.90;;;;;;5077699;28;20666;-80
2021/05/06 11:13:48;;;;;;;0.08;0.08;;;12.90;99.90;;;;;;5072314;28;20443;-79
2021/05/06 11:16:18;;;;;;;0.35;0.35;;;13.00;99.90;;;;;;5089093;28;20457;-80
2021/05/06 11:18:51;;;;;;;0.10;0.10;;;13.10;99.90;;;;;;5077298;28;20028;-81
2021/05/06 11:21:34;;;;;;;0.47;0.47;;;13.20;99.90;;;;;;5058444;28;20580;-80
2021/05/06 11:24:24;;;;;;;0.40;0.40;;;13.00;99.90;;;;;;5055938;28;20028;-79
2021/05/06 11:27:08;;;;;;;0.30;0.20;;;12.90;99.90;;;;;;5048769;28;20139;-79
2021/05/06 11:29:37;;;;;;;0.10;0.10;;;12.90;99.90;;;;;;5051576;28;20066;-79
2021/05/06 11:32:03;;;;;;;0.20;0.20;;;12.90;99.90;;;;;;5070835;28;20040;-79
2021/05/06 11:34:37;;;;;;;0.40;0.40;;;12.90;99.90;;;;;;5066180;28;20033;-79
2021/05/06 11:37:14;;;;;;;0.10;0.10;;;13.00;99.90;;;;;;5068043;28;20905;-79
2021/05/06 11:39:56;;;;;;;0.10;0.10;;;13.20;99.90;;;;;;5087823;28;20031;-79
2021/05/06 11:42:24;;;;;;;0.10;0.10;;;13.30;99.90;;;;;;5085764;28;20024;-78
2021/05/06 11:45:45;;;;;;;0.20;0.20;;;13.40;99.90;;;;;;5079359;28;20029;-79
2021/05/06 11:48:15;;;;;;;0.30;0.30;;;13.50;99.90;;;;;;5062987;28;20392;-80
2021/05/06 11:50:50;;;;;;;0.10;0.10;;;13.50;99.90;;;;;;5073991;28;20023;-80
2021/05/06 11:53:18;;;;;;;0.10;0.10;;;13.40;99.90;;;;;;5071951;28;20039;-80
2021/05/06 11:55:44;;;;;;;0.20;0.20;;;13.50;99.90;;;;;;5071959;28;20460;-79
2021/05/06 11:58:20;;;;;;;0.00;0.00;;;13.50;99.90;;;;;;5054610;28;20253;-80
2021/05/06 12:00:47;;;;;;;0.10;0.10;;;13.60;99.90;;;;;;5075964;28;20526;-80
2021/05/06 12:03:13;;;;;;;0.00;0.00;;;13.60;99.90;;;;;;5072185;28;20502;-80
2021/05/06 12:05:49;;;;;;;0.20;0.20;;;13.60;99.90;;;;;;5062993;28;20447;-80
2021/05/06 12:08:15;;;;;;;0.10;0.10;;;13.80;99.90;;;;;;5079042;28;20043;-80
2021/05/06 12:10:42;;;;;;;0.10;0.10;;;13.90;99.90;;;;;;5075799;28;20056;-80
2021/05/06 12:13:09;;;;;;;0.70;0.60;;;13.90;99.90;;;;;;5082143;28;20071;-79
2021/05/06 12:15:34;;;;;;;;;;;13.90;99.90;;;;;;5073824;28;20013;-79
2021/05/06 12:18:20;;;;;;;0.20;0.20;;;14.00;99.90;;;;;;5070938;28;19916;-80
2021/05/06 12:20:48;;;;;;;0.25;0.25;;;13.90;99.90;;;;;;5081458;28;20040;-79
2021/05/06 12:23:14;;;;;;;0.10;0.10;;;14.00;99.90;;;;;;5071050;28;20518;-80
2021/05/06 12:25:40;;;;;;;0.25;0.25;;;14.00;99.90;;;;;;5069447;28;20035;-81
2021/05/06 12:28:06;;;;;;;0.10;0.10;;;14.20;99.90;;;;;;5075182;28;20035;-81
2021/05/06 12:30:33;;;;;;;0.30;0.30;;;14.30;99.90;;;;;;5081762;28;20558;-81
2021/05/06 12:32:59;;;;;;;0.40;0.40;;;14.20;99.90;;;;;;5080838;28;20032;-80
2021/05/06 12:35:24;;;;;;;3.20;1.10;;;14.10;99.90;;;;;;5082338;28;20020;-81
2021/05/06 12:37:53;;;;;;;0.43;0.43;;;14.30;99.90;;;;;;5074637;28;20103;-80
2021/05/06 12:40:19;;;;;;;0.10;0.10;;;14.80;99.90;;;;;;5088627;28;20028;-80
2021/05/06 12:42:45;;;;;;;0.20;0.20;;;15.10;99.90;;;;;;5081421;28;20032;-80
2021/05/06 12:45:13;;;;;;;0.37;0.33;;;15.40;99.90;;;;;;5092481;28;20047;-80
2021/05/06 12:47:48;;;;;;;0.47;0.47;;;16.40;99.90;;;;;;5091362;28;20028;-81
2021/05/06 12:50:21;;;;;;;0.40;0.40;;;17.10;99.90;;;;;;5072923;28;20039;-80
2021/05/06 12:52:49;;;;;;;0.75;0.75;;;16.70;99.90;;;;;;5072095;28;20074;-80
2021/05/06 12:55:25;;;;;;;0.28;0.28;;;17.90;99.90;;;;;;5073187;28;20036;-80
2021/05/06 12:58:15;;;;;;;0.77;0.77;;;18.20;99.90;;;;;;5083336;28;20066;-80
2021/05/06 13:00:45;;;;;;;1.90;1.58;;;18.30;99.90;;;;;;5080081;28;20060;-80
2021/05/06 13:03:15;;;;;;;0.32;0.32;;;18.40;99.90;;;;;;5070877;28;20035;-79
2021/05/06 13:05:43;;;;;;;0.10;0.10;;;18.50;99.90;;;;;;5063892;28;20029;-79
2021/05/06 13:08:09;;;;;;;0.50;0.50;;;18.50;99.90;;;;;;5050582;28;20083;-80
2021/05/06 13:10:35;;;;;;;0.93;0.88;;;18.40;99.90;;;;;;5051283;28;20069;-80
2021/05/06 13:13:02;;;;;;;0.52;0.52;;;18.50;99.90;;;;;;5050908;28;20552;-79
2021/05/06 13:15:28;;;;;;;;;;;18.60;99.90;;;;;;5051628;28;20505;-79
2021/05/06 13:17:56;;;;;;;0.52;0.52;;;18.60;99.90;;;;;;5049789;28;19979;-80
2021/05/06 13:20:28;;;;;;;0.25;0.17;;;18.70;99.90;;;;;;5049049;28;20458;-79
2021/05/06 13:23:08;;;;;;;0.10;0.10;;;19.00;99.90;;;;;;5048035;28;20454;-79
2021/05/06 13:25:49;;;;;;;0.20;0.20;;;19.10;99.90;;;;;;5049549;28;20155;-80
2021/05/06 13:28:36;;;;;;;0.10;0.10;;;18.90;99.90;;;;;;5050362;28;20099;-80
2021/05/06 13:31:14;;;;;;;0.30;0.30;;;18.30;99.90;;;;;;5050282;28;20484;-80
2021/05/06 13:33:40;;;;;;;0.00;0.00;;;18.70;99.90;;;;;;5060577;28;20029;-79
2021/05/06 13:36:12;;;;;;;0.10;0.10;;;18.70;99.90;;;;;;5070397;28;20519;-80
2021/05/06 13:39:00;;;;;;;0.63;0.63;;;18.50;99.90;;;;;;5065267;28;20396;-80
2021/05/06 13:41:31;;;;;;;0.10;0.10;;;18.70;99.90;;;;;;5071232;28;20162;-80
2021/05/06 13:43:59;;;;;;;0.10;0.10;;;18.70;99.90;;;;;;5076115;28;20020;-80
2021/05/06 13:46:26;;;;;;;0.20;0.20;;;18.70;99.90;;;;;;5086795;28;20113;-80
2021/05/06 13:48:52;;;;;;;;;;;18.60;99.90;;;;;;5070497;28;20150;-81
2021/05/06 13:51:20;;;;;;;0.10;0.10;;;18.50;99.90;;;;;;5075127;28;19916;-81
2021/05/06 13:53:48;;;;;;;0.28;0.22;;;18.40;99.90;;;;;;5082222;28;20111;-81
2021/05/06 13:56:14;;;;;;;0.73;0.52;;;18.20;99.90;;;;;;5078373;28;20020;-82
2021/05/06 13:58:40;;;;;;;0.68;0.68;;;18.10;99.90;;;;;;5067183;28;20155;-81
2021/05/06 14:01:10;;;;;;;0.10;0.10;;;18.10;99.90;;;;;;5060421;28;20040;-81
2021/05/06 14:03:37;;;;;;;0.10;0.10;;;17.60;99.90;;;;;;5069526;28;20503;-81
2021/05/06 14:06:05;;;;;;;0.10;0.10;;;16.80;99.90;;;;;;5070359;28;20020;-81
2021/05/06 14:08:31;;;;;;;0.25;0.25;;;17.20;99.90;;;;;;5059554;28;20056;-82
2021/05/06 14:10:58;;;;;;;0.10;0.10;;;17.30;99.90;;;;;;5062135;28;20074;-81
2021/05/06 14:13:24;;;;;;;0.05;0.05;;;17.40;99.90;;;;;;5079295;28;20039;-81
2021/05/06 14:15:51;;;;;;;0.10;0.10;;;17.30;99.90;;;;;;5069820;28;20094;-82
2021/05/06 14:18:17;;;;;;;0.10;0.10;;;17.40;99.90;;;;;;5069229;28;20566;-81
2021/05/06 14:20:45;;;;;;;0.10;0.10;;;17.20;99.90;;;;;;5063718;28;20025;-82
2021/05/06 14:23:18;;;;;;;0.10;0.10;;;17.20;99.90;;;;;;5078356;28;20072;-81
2021/05/06 14:25:49;;;;;;;0.57;0.28;;;17.00;99.90;;;;;;5056395;28;20393;-82
2021/05/06 14:28:15;;;;;;;0.20;0.20;;;17.20;99.90;;;;;;5055268;28;20032;-82
2021/05/06 14:30:41;;;;;;;0.05;0.05;;;17.20;99.90;;;;;;5051386;28;20039;-81
2021/05/06 14:33:07;;;;;;;0.10;0.10;;;16.90;99.90;;;;;;5054708;28;20048;-82
2021/05/06 14:35:34;;;;;;;0.10;0.10;;;16.90;99.90;;;;;;5051278;28;20688;-81
2021/05/06 14:38:00;;;;;;;0.03;0.03;;;16.90;99.90;;;;;;5055350;28;20017;-82
2021/05/06 14:40:26;;;;;;;0.30;0.30;;;16.70;99.90;;;;;;5061742;28;20029;-82
2021/05/06 14:42:53;;;;;;;0.00;0.00;;;16.80;99.90;;;;;;5072923;28;20021;-83
2021/05/06 14:45:19;;;;;;;0.03;0.03;;;16.70;99.90;;;;;;5062476;28;20408;-82
2021/05/06 14:47:44;;;;;;;1.67;0.65;;;16.50;99.90;;;;;;5075329;28;20028;-81
2021/05/06 14:50:14;;;;;;;0.13;0.13;;;16.60;99.90;;;;;;5057115;28;20257;-82
2021/05/06 14:52:40;;;;;;;0.32;0.05;;;16.50;99.90;;;;;;5060551;28;20028;-82
2021/05/06 14:55:09;;;;;;;0.00;0.00;;;16.50;99.90;;;;;;5055643;28;20028;-82
2021/05/06 14:57:35;;;;;;;0.60;0.60;;;16.60;99.90;;;;;;5069261;28;20108;-82
2021/05/06 15:00:05;;;;;;;0.10;0.10;;;16.70;99.90;;;;;;5070121;28;20043;-84
2021/05/06 15:02:32;;;;;;;0.10;0.10;;;16.70;99.90;;;;;;5058238;28;20063;-83
2021/05/06 15:04:59;;;;;;;0.10;0.10;;;16.70;99.90;;;;;;5073297;28;20060;-83
2021/05/06 15:07:24;;;;;;;0.57;0.57;;;16.60;99.90;;;;;;5062170;28;20052;-82
2021/05/06 15:09:50;;;;;;;0.80;0.80;;;16.70;99.90;;;;;;5069987;28;20067;-81
2021/05/06 15:12:16;;;;;;;0.20;0.20;;;16.70;99.90;;;;;;5061090;28;20036;-82
2021/05/06 15:14:42;;;;;;;0.15;0.15;;;16.70;99.90;;;;;;5075002;28;20418;-81
2021/05/06 15:17:08;;;;;;;0.20;0.20;;;16.70;99.90;;;;;;5072567;28;20104;-83
2021/05/06 15:19:34;;;;;;;0.08;0.08;;;16.70;99.90;;;;;;5064286;28;20473;-81
2021/05/06 15:22:01;;;;;;;0.32;0.32;;;16.80;99.90;;;;;;5052163;28;20564;-81
2021/05/06 15:24:27;;;;;;;0.30;0.30;;;16.80;99.90;;;;;;5041614;28;20037;-81
2021/05/06 15:26:53;;;;;;;0.63;0.57;;;16.80;99.90;;;;;;5068513;28;20077;-81
2021/05/06 15:29:19;;;;;;;0.10;0.10;;;16.80;99.90;;;;;;5068557;28;20251;-82
2021/05/06 15:31:44;;;;;;;0.03;0.03;;;16.90;99.90;;;;;;5075317;28;20102;-82
2021/05/06 15:34:10;;;;;;;0.20;0.20;;;17.00;99.90;;;;;;5076786;28;20033;-82
2021/05/06 15:36:36;;;;;;;0.35;0.13;;;16.80;99.90;;;;;;5068440;28;20483;-82
2021/05/06 15:39:05;;;;;;;0.17;0.17;;;16.80;99.90;;;;;;5067774;28;20062;-82
2021/05/06 15:41:31;;;;;;;0.20;0.20;;;16.80;99.90;;;;;;5067720;28;20040;-83
2021/05/06 15:43:57;;;;;;;0.00;0.00;;;16.70;99.90;;;;;;5068807;28;20032;-83
2021/05/06 15:46:23;;;;;;;0.10;0.10;;;16.60;99.90;;;;;;5068036;28;20025;-83
2021/05/06 15:48:49;;;;;;;0.55;0.45;;;16.60;99.90;;;;;;5068432;28;20514;-83
2021/05/06 15:51:15;;;;;;;0.15;0.15;;;16.60;99.90;;;;;;5067487;28;20060;-82
2021/05/06 15:53:43;;;;;;;0.20;0.20;;;16.70;99.90;;;;;;5067484;28;20078;-82
2021/05/06 15:56:09;;;;;;;0.10;0.10;;;16.80;99.90;;;;;;5068484;28;20021;-82
2021/05/06 15:58:37;;;;;;;0.28;0.28;;;16.90;99.90;;;;;;5067031;28;20041;-84
2021/05/06 16:01:03;;;;;;;;;;;17.00;99.90;;;;;;5067453;28;20033;-83
2021/05/06 16:03:32;;;;;;;0.40;0.40;;;17.00;99.90;;;;;;5062329;28;19947;-83
2021/05/06 16:05:58;;;;;;;0.10;0.10;;;16.90;99.90;;;;;;5055327;28;20966;-84
2021/05/06 16:08:25;;;;;;;0.10;0.10;;;16.70;99.90;;;;;;5078071;28;20091;-84
2021/05/06 16:10:52;;;;;;;1.27;1.17;;;16.70;99.90;;;;;;5068455;28;20119;-85
2021/05/06 16:13:18;;;;;;;0.15;0.15;;;16.60;99.90;;;;;;5066602;28;20086;-84
2021/05/06 16:15:45;;;;;;;0.77;0.73;;;16.20;99.90;;;;;;5081191;28;20016;-84
2021/05/06 16:18:11;;;;;;;0.00;0.00;;;15.60;99.90;;;;;;5084015;28;20035;-84
2021/05/06 16:20:41;;;;;;;0.00;0.00;;;15.30;99.90;;;;;;5084667;28;20024;-85
2021/05/06 16:23:13;;;;;;;0.13;0.13;;;15.10;99.90;;;;;;5065722;28;20090;-84
2021/05/06 16:25:40;;;;;;;2.13;1.05;;;15.10;99.90;;;;;;5063672;28;20074;-83
2021/05/06 16:28:07;;;;;;;0.40;0.40;;;14.90;99.90;;;;;;5069305;28;20028;-85
2021/05/06 16:30:33;;;;;;;0.22;0.22;;;15.00;99.90;;;;;;5067277;28;20013;-85
2021/05/06 16:33:04;;;;;;;0.08;0.08;;;14.80;99.90;;;;;;5062876;28;20035;-84
2021/05/06 16:35:38;;;;;;;0.00;0.00;;;14.70;99.90;;;;;;5056472;28;20066;-84